Time;durP1;ratioP1;P1;durP2;ratioP2;P2;SDS_P1;SDS_P2;PMS_P1;PMS_P2;Temp;Humidity;BMP_temperature;BMP_pressure;BME280_temperature;BME280_humidity;BME280_pressure;Samples;Min_cycle;Max_cycle;Signal;HPM_P1;HPM_P2
2021/09/30 00:00:07;;;;;;;;;;;;;;;8.72;100.00;99649.47;5028376;28;19983;-81
2021/09/30 00:02:34;;;;;;;;;;;;;;;9.25;100.00;99648.69;5032111;28;19952;-82
2021/09/30 00:05:03;;;;;;;;;;;;;;;9.27;100.00;99651.88;5029135;28;20013;-81
2021/09/30 00:07:30;;;;;;;;;;;;;;;9.58;100.00;99651.00;5030644;28;20419;-82
2021/09/30 00:09:57;;;;;;;;;;;;;;;9.71;100.00;99641.00;5001513;28;19971;-81
2021/09/30 00:12:28;;;;;;;;;;;;;;;9.87;100.00;99641.34;5034341;28;19933;-82
2021/09/30 00:15:06;;;;;;;;;;;;;;;9.82;100.00;99633.38;4993880;28;19929;-82
2021/09/30 00:34:42;;;;;;;;;;;;;;;9.65;100.00;99604.34;5018075;28;19929;-82
2021/09/30 00:48:09;;;;;;;;;;;;;;;9.39;100.00;99592.88;5055476;28;19924;-81
2021/09/30 00:51:25;;;;;;;;;;;;;;;9.25;100.00;99598.47;4981869;28;19940;-81
2021/09/30 02:19:11;;;;;;;;;;;;;;;12.11;100.00;99499.41;4986389;28;19960;-82
2021/09/30 03:00:40;;;;;;;;;;;;;;;12.38;100.00;99406.91;5015542;28;19939;-81
2021/09/30 03:03:09;;;;;;;;;;;;;;;12.39;100.00;99414.06;4999152;28;19932;-81
2021/09/30 03:05:36;;;;;;;;;;;;;;;12.40;100.00;99405.25;4999067;28;19972;-81
2021/09/30 03:08:03;;;;;;;;;;;;;;;12.41;100.00;99411.66;5015133;28;20292;-81
2021/09/30 03:10:31;;;;;;;;;;;;;;;12.32;100.00;99401.00;4998669;28;19932;-81
2021/09/30 03:12:59;;;;;;;;;;;;;;;12.40;100.00;99399.63;5015146;28;20289;-81
2021/09/30 03:15:35;;;;;;;;;;;;;;;12.62;100.00;99402.84;4998333;28;20006;-81
2021/09/30 03:20:54;;;;;;;;;;;;;;;12.46;100.00;99391.56;4998503;28;20300;-81
2021/09/30 03:23:24;;;;;;;;;;;;;;;12.10;100.00;99382.97;5015068;28;19925;-81
2021/09/30 03:25:52;;;;;;;;;;;;;;;12.11;100.00;99375.38;5031443;28;19925;-81
2021/09/30 03:28:22;;;;;;;;;;;;;;;12.12;100.00;99376.94;5015268;28;19932;-81
2021/09/30 03:30:52;;;;;;;;;;;;;;;12.09;100.00;99367.38;4985372;28;19995;-83
2021/09/30 03:33:20;;;;;;;;;;;;;;;11.99;100.00;99362.78;4998599;28;19925;-81
2021/09/30 03:35:58;;;;;;;;;;;;;;;11.98;100.00;99346.41;5019825;28;20028;-79
2021/09/30 03:38:25;;;;;;;;;;;;;;;12.01;100.00;99360.31;4997525;28;20015;-79
2021/09/30 03:40:52;;;;;;;;;;;;;;;12.10;100.00;99352.16;4995030;28;19925;-80
2021/09/30 03:43:19;;;;;;;;;;;;;;;12.00;100.00;99341.94;5019489;28;20373;-80
2021/09/30 03:45:48;;;;;;;;;;;;;;;11.98;100.00;99352.75;5014692;28;19929;-80
2021/09/30 03:48:20;;;;;;;;;;;;;;;11.99;100.00;99342.38;4983056;28;19964;-79
2021/09/30 03:51:10;;;;;;;;;;;;;;;11.80;100.00;99349.47;5014503;28;20019;-80
2021/09/30 04:01:30;;;;;;;;;;;;;;;12.07;100.00;99341.03;5014693;28;19932;-80
2021/09/30 04:03:58;;;;;;;;;;;;;;;12.25;100.00;99342.28;4998361;28;19929;-80
2021/09/30 04:06:25;;;;;;;;;;;;;;;12.28;100.00;99335.03;4996423;28;20300;-80
2021/09/30 04:08:56;;;;;;;;;;;;;;;12.22;100.00;99343.13;5017572;28;20020;-80
2021/09/30 04:11:24;;;;;;;;;;;;;;;12.33;100.00;99342.94;5002231;28;20373;-81
2021/09/30 04:13:51;;;;;;;;;;;;;;;12.35;100.00;99346.09;5018532;28;19929;-80
2021/09/30 04:16:18;;;;;;;;;;;;;;;12.60;100.00;99347.22;5002183;28;20614;-80
2021/09/30 04:18:45;;;;;;;;;;;;;;;12.66;100.00;99348.28;5032253;28;20403;-80
2021/09/30 04:21:13;;;;;;;;;;;;;;;12.79;100.00;99342.84;4992999;28;20399;-81
2021/09/30 04:23:41;;;;;;;;;;;;;;;12.58;100.00;99338.47;5018071;28;19932;-81
2021/09/30 04:26:08;;;;;;;;;;;;;;;12.52;100.00;99328.97;4985914;28;20301;-81
2021/09/30 04:28:35;;;;;;;;;;;;;;;12.61;100.00;99340.41;5001851;28;20348;-81
2021/09/30 04:31:02;;;;;;;;;;;;;;;11.81;100.00;99334.28;5018095;28;20519;-81
2021/09/30 04:33:34;;;;;;;;;;;;;;;12.00;100.00;99329.94;5001506;28;20012;-80
2021/09/30 04:36:01;;;;;;;;;;;;;;;11.84;100.00;99327.81;5018011;28;20020;-80
2021/09/30 04:38:29;;;;;;;;;;;;;;;11.92;100.00;99318.06;5017871;28;19925;-80
2021/09/30 04:40:56;;;;;;;;;;;;;;;11.94;100.00;99321.25;5017944;28;20388;-80
2021/09/30 04:43:24;;;;;;;;;;;;;;;11.95;100.00;99306.00;5017880;28;20407;-80
2021/09/30 04:45:51;;;;;;;;;;;;;;;12.10;100.00;99321.34;5017766;28;19979;-80
2021/09/30 04:48:19;;;;;;;;;;;;;;;12.40;100.00;99312.00;4998274;28;19960;-80
2021/09/30 04:50:52;;;;;;;;;;;;;;;11.76;100.00;99314.34;5014476;28;20456;-80
2021/09/30 04:53:20;;;;;;;;;;;;;;;12.26;100.00;99310.25;5017316;28;19924;-80
2021/09/30 04:55:47;;;;;;;;;;;;;;;11.95;100.00;99294.03;5000880;28;19929;-80
2021/09/30 04:58:15;;;;;;;;;;;;;;;11.92;100.00;99301.28;5017484;28;20396;-80
2021/09/30 05:00:42;;;;;;;;;;;;;;;12.17;100.00;99301.63;4985470;28;19925;-80
2021/09/30 05:03:12;;;;;;;;;;;;;;;12.21;100.00;99279.94;5017509;28;19980;-80
2021/09/30 05:05:39;;;;;;;;;;;;;;;12.29;100.00;99289.78;5001153;28;19925;-81
2021/09/30 05:08:07;;;;;;;;;;;;;;;12.21;100.00;99284.72;5034705;28;19925;-80
2021/09/30 05:10:37;;;;;;;;;;;;;;;12.58;100.00;99287.22;4995039;28;19961;-81
2021/09/30 05:13:11;;;;;;;;;;;;;;;12.46;100.00;99290.66;5017587;28;19991;-81
2021/09/30 05:15:39;;;;;;;;;;;;;;;12.20;100.00;99269.97;5004665;28;20322;-80
2021/09/30 05:18:26;;;;;;;;;;;;;;;12.47;100.00;99270.63;5034035;28;20403;-80
2021/09/30 05:20:54;;;;;;;;;;;;;;;12.11;100.00;99278.13;5013765;28;20392;-81
2021/09/30 05:23:22;;;;;;;;;;;;;;;11.65;100.00;99286.53;5011632;28;19931;-80
2021/09/30 05:25:50;;;;;;;;;;;;;;;11.94;100.00;99276.44;5017660;28;19925;-82
2021/09/30 05:28:17;;;;;;;;;;;;;;;12.11;100.00;99275.31;5033612;28;19929;-80
2021/09/30 05:30:45;;;;;;;;;;;;;;;12.06;100.00;99267.41;5000708;28;19975;-79
2021/09/30 05:33:25;;;;;;;;;;;;;;;12.40;100.00;99259.53;5016973;28;19926;-80
2021/09/30 05:35:52;;;;;;;;;;;;;;;11.56;100.00;99240.69;5000158;28;19925;-80
2021/09/30 05:38:19;;;;;;;;;;;;;;;11.84;100.00;99260.63;5016806;28;19936;-80
2021/09/30 05:40:49;;;;;;;;;;;;;;;12.16;100.00;99252.41;5006126;28;19925;-80
2021/09/30 05:43:30;;;;;;;;;;;;;;;11.66;100.00;99251.72;5009417;28;20397;-79
2021/09/30 05:45:58;;;;;;;;;;;;;;;11.88;100.00;99243.75;5016668;28;19925;-79
2021/09/30 05:48:26;;;;;;;;;;;;;;;11.95;100.00;99254.84;5000256;28;19932;-80
2021/09/30 05:50:53;;;;;;;;;;;;;;;11.90;100.00;99244.13;5032069;28;19932;-79
2021/09/30 05:53:39;;;;;;;;;;;;;;;11.81;100.00;99227.91;5052701;28;19931;-77
2021/09/30 05:56:17;;;;;;;;;;;;;;;11.96;100.00;99231.22;5019023;28;19979;-78
2021/09/30 05:58:44;;;;;;;;;;;;;;;12.05;100.00;99232.25;5016694;28;19986;-78
2021/09/30 06:01:37;;;;;;;;;;;;;;;12.38;100.00;99233.16;4998495;28;19929;-78
2021/09/30 06:12:19;;;;;;;;;;;;;;;12.04;100.00;99205.44;5016076;28;19925;-76
2021/09/30 06:14:46;;;;;;;;;;;;;;;12.26;100.00;99184.19;5016364;28;19932;-77
2021/09/30 06:17:13;;;;;;;;;;;;;;;12.22;100.00;99194.66;5016834;28;20020;-77
2021/09/30 06:19:46;;;;;;;;;;;;;;;12.37;100.00;99190.34;5000457;28;19925;-76
2021/09/30 06:22:15;;;;;;;;;;;;;;;11.53;100.00;99200.38;5016747;28;19987;-77
2021/09/30 06:24:42;;;;;;;;;;;;;;;12.08;100.00;99192.16;5016965;28;20385;-77
2021/09/30 06:27:20;;;;;;;;;;;;;;;12.07;100.00;99193.38;5016255;28;19932;-77
2021/09/30 06:29:47;;;;;;;;;;;;;;;12.50;100.00;99184.88;5015430;28;19931;-77
2021/09/30 06:32:14;;;;;;;;;;;;;;;12.62;100.00;99165.38;5032241;28;19979;-77
2021/09/30 06:34:59;;;;;;;;;;;;;;;12.68;100.00;99174.06;5015813;28;19925;-78
2021/09/30 06:37:39;;;;;;;;;;;;;;;12.87;100.00;99170.41;5002367;28;20297;-77
2021/09/30 06:40:07;;;;;;;;;;;;;;;12.74;100.00;99167.50;4999486;28;19979;-78
2021/09/30 06:42:34;;;;;;;;;;;;;;;12.78;100.00;99179.41;5015514;28;19974;-78
2021/09/30 06:45:21;;;;;;;;;;;;;;;12.84;100.00;99170.50;4975831;28;20292;-78
2021/09/30 06:48:07;;;;;;;;;;;;;;;12.98;100.00;99164.56;5021608;28;19929;-77
2021/09/30 06:50:46;;;;;;;;;;;;;;;12.90;100.00;99163.13;4998933;28;20427;-78
2021/09/30 06:53:27;;;;;;;;;;;;;;;12.99;100.00;99155.72;5015475;28;19929;-77
2021/09/30 06:55:59;;;;;;;;;;;;;;;13.10;100.00;99147.06;5015268;28;20024;-78
2021/09/30 06:58:45;;;;;;;;;;;;;;;13.26;100.00;99141.44;5033078;28;20373;-78
2021/09/30 07:01:49;;;;;;;;;;;;;;;12.83;100.00;99136.06;4966818;28;20081;-78
2021/09/30 07:04:35;;;;;;;;;;;;;;;12.61;100.00;99130.16;4971793;28;20360;-77
2021/09/30 07:07:20;;;;;;;;;;;;;;;13.01;100.00;99141.28;4955791;28;19946;-77
2021/09/30 07:09:48;;;;;;;;;;;;;;;13.68;100.00;99118.66;4971543;28;20410;-78
2021/09/30 07:12:15;;;;;;;;;;;;;;;13.73;100.00;99114.50;4971833;28;20305;-78
2021/09/30 07:14:42;;;;;;;;;;;;;;;13.08;100.00;99113.03;4955863;28;19932;-78
2021/09/30 07:17:09;;;;;;;;;;;;;;;13.00;100.00;99111.63;4939473;28;19933;-78
2021/09/30 07:19:37;;;;;;;;;;;;;;;11.97;100.00;99104.78;4971732;28;19965;-78
2021/09/30 07:22:05;;;;;;;;;;;;;;;12.77;100.00;99109.00;4955328;28;19927;-78
2021/09/30 07:24:32;;;;;;;;;;;;;;;13.06;100.00;99112.69;4971591;28;19977;-78
2021/09/30 07:27:00;;;;;;;;;;;;;;;13.50;100.00;99101.50;4954496;28;19970;-78
2021/09/30 07:29:27;;;;;;;;;;;;;;;13.30;100.00;99102.88;4971555;28;19933;-78
2021/09/30 07:31:54;;;;;;;;;;;;;;;13.16;100.00;99114.44;4955208;28;20132;-78
2021/09/30 07:34:21;;;;;;;;;;;;;;;12.63;100.00;99115.72;4987659;28;20390;-78
2021/09/30 07:36:48;;;;;;;;;;;;;;;13.50;100.00;99101.50;4998351;28;20311;-78
2021/09/30 07:39:17;;;;;;;;;;;;;;;13.57;100.00;99106.13;5014568;28;19929;-78
2021/09/30 07:41:44;;;;;;;;;;;;;;;13.53;100.00;99086.56;5032566;28;20454;-78
2021/09/30 07:44:11;;;;;;;;;;;;;;;13.39;100.00;99080.56;5018637;28;19978;-78
2021/09/30 07:46:39;;;;;;;;;;;;;;;13.24;100.00;99085.00;5018943;28;20343;-77
2021/09/30 07:49:07;;;;;;;;;;;;;;;13.32;100.00;99061.91;5002351;28;20369;-78
2021/09/30 07:51:36;;;;;;;;;;;;;;;13.03;100.00;99083.50;5002341;28;20011;-78
2021/09/30 07:54:03;;;;;;;;;;;;;;;13.14;100.00;99086.03;5036227;28;19967;-78
2021/09/30 07:56:31;;;;;;;;;;;;;;;12.58;100.00;99069.38;5018324;28;20020;-78
2021/09/30 07:58:58;;;;;;;;;;;;;;;12.94;100.00;99074.09;5036350;28;19925;-78
2021/09/30 08:01:25;;;;;;;;;;;;;;;13.61;100.00;99068.31;5017699;28;19933;-78
2021/09/30 08:03:53;;;;;;;;;;;;;;;13.79;100.00;99059.38;5002349;28;19932;-78
2021/09/30 08:06:20;;;;;;;;;;;;;;;13.49;100.00;99069.06;5002346;28;19925;-78
2021/09/30 08:08:51;;;;;;;;;;;;;;;12.63;100.00;99052.03;5002114;28;19925;-78
2021/09/30 08:11:18;;;;;;;;;;;;;;;13.27;100.00;99042.03;5018402;28;19925;-78
2021/09/30 08:13:46;;;;;;;;;;;;;;;13.33;100.00;99045.88;5018453;28;19988;-78
2021/09/30 08:16:14;;;;;;;;;;;;;;;13.57;100.00;99044.38;5018149;28;19968;-78
2021/09/30 08:18:41;;;;;;;;;;;;;;;12.77;100.00;99047.31;5018104;28;19972;-78
2021/09/30 08:21:12;;;;;;;;;;;;;;;13.62;100.00;99030.56;4986088;28;19971;-78
2021/09/30 08:23:40;;;;;;;;;;;;;;;12.66;100.00;99047.56;5016297;28;20028;-78
2021/09/30 08:26:07;;;;;;;;;;;;;;;12.69;100.00;99036.25;5002033;28;20079;-78
2021/09/30 08:28:36;;;;;;;;;;;;;;;12.82;100.00;99039.16;5018193;28;19936;-78
2021/09/30 08:31:04;;;;;;;;;;;;;;;13.28;100.00;99029.56;5035526;28;19930;-78
2021/09/30 08:33:32;;;;;;;;;;;;;;;13.23;100.00;99027.28;5018081;28;19963;-78
2021/09/30 08:35:59;;;;;;;;;;;;;;;12.60;100.00;99010.84;5018017;28;20010;-78
2021/09/30 08:38:26;;;;;;;;;;;;;;;12.69;100.00;99019.44;5017884;28;20227;-78
2021/09/30 08:40:53;;;;;;;;;;;;;;;13.28;100.00;98985.47;5018015;28;20343;-78
2021/09/30 08:43:21;;;;;;;;;;;;;;;13.46;100.00;99013.00;5035463;28;19969;-78
2021/09/30 08:45:48;;;;;;;;;;;;;;;13.70;100.00;99006.69;5001407;28;20323;-78
2021/09/30 08:48:15;;;;;;;;;;;;;;;12.59;100.00;98994.47;5017678;28;20457;-78
2021/09/30 08:50:43;;;;;;;;;;;;;;;12.77;100.00;98980.78;5001106;28;19964;-79
2021/09/30 08:53:12;;;;;;;;;;;;;;;13.52;100.00;98986.78;5017562;28;20015;-78
2021/09/30 08:55:43;;;;;;;;;;;;;;;13.45;100.00;98980.56;5017598;28;20390;-79
2021/09/30 08:58:11;;;;;;;;;;;;;;;13.18;100.00;98972.50;5017431;28;20285;-78
2021/09/30 09:00:40;;;;;;;;;;;;;;;13.08;100.00;98986.81;5035322;28;19926;-78
2021/09/30 09:03:07;;;;;;;;;;;;;;;13.27;100.00;98985.91;5034852;28;19925;-78
2021/09/30 09:05:38;;;;;;;;;;;;;;;13.81;100.00;98975.47;5017513;28;20363;-78
2021/09/30 09:08:06;;;;;;;;;;;;;;;13.19;100.00;98962.06;5017124;28;19975;-78
2021/09/30 09:10:39;;;;;;;;;;;;;;;13.83;100.00;98959.75;5017345;28;20385;-78
2021/09/30 09:13:08;;;;;;;;;;;;;;;13.27;100.00;98957.84;5001119;28;20408;-78
2021/09/30 09:15:42;;;;;;;;;;;;;;;14.08;100.00;98956.16;5000844;28;19978;-78
2021/09/30 09:18:12;;;;;;;;;;;;;;;13.86;100.00;98966.47;5034911;28;19925;-78
2021/09/30 09:20:40;;;;;;;;;;;;;;;14.14;100.00;98951.56;5017229;28;20366;-78
2021/09/30 09:23:10;;;;;;;;;;;;;;;13.26;100.00;98929.00;5016934;28;19925;-78
2021/09/30 09:25:38;;;;;;;;;;;;;;;13.88;100.00;98925.50;5000637;28;19925;-78
2021/09/30 09:28:05;;;;;;;;;;;;;;;13.18;100.00;98940.84;5034574;28;19975;-78
2021/09/30 09:30:45;;;;;;;;;;;;;;;13.28;100.00;98914.50;5000930;28;20431;-78
2021/09/30 09:33:22;;;;;;;;;;;;;;;14.14;100.00;98937.50;5016865;28;19925;-78
2021/09/30 09:35:55;;;;;;;;;;;;;;;14.25;100.00;98907.09;5016669;28;20029;-78
2021/09/30 09:38:24;;;;;;;;;;;;;;;13.82;100.00;98916.06;5034416;28;20448;-78
2021/09/30 09:40:52;;;;;;;;;;;;;;;14.28;100.00;98904.13;5016663;28;20407;-78
2021/09/30 09:43:46;;;;;;;;;;;;;;;14.21;100.00;98897.94;5034365;28;20284;-78
2021/09/30 09:46:17;;;;;;;;;;;;;;;13.50;100.00;98904.22;5032108;28;19925;-78
2021/09/30 09:49:18;;;;;;;;;;;;;;;14.48;100.00;98898.25;5016712;28;20010;-78
2021/09/30 09:51:48;;;;;;;;;;;;;;;13.11;100.00;98905.38;5006406;28;19979;-77
2021/09/30 09:54:16;;;;;;;;;;;;;;;14.08;100.00;98899.97;5034186;28;20016;-78
2021/09/30 09:56:44;;;;;;;;;;;;;;;13.85;100.00;98875.03;5000226;28;19925;-78
2021/09/30 09:59:11;;;;;;;;;;;;;;;14.41;100.00;98895.69;5016435;28;20364;-78
2021/09/30 10:01:43;;;;;;;;;;;;;;;14.46;100.00;98870.59;5016517;28;19928;-78
2021/09/30 10:04:11;;;;;;;;;;;;;;;14.79;100.00;98842.94;4999990;28;19926;-78
2021/09/30 10:06:41;;;;;;;;;;;;;;;14.68;100.00;98873.44;5016360;28;19929;-78
2021/09/30 10:09:11;;;;;;;;;;;;;;;14.80;100.00;98850.13;5000273;28;19929;-78
2021/09/30 10:11:38;;;;;;;;;;;;;;;15.05;100.00;98844.38;5033568;28;20304;-78
2021/09/30 10:14:07;;;;;;;;;;;;;;;15.10;100.00;98860.66;5033922;28;19929;-78
2021/09/30 10:16:35;;;;;;;;;;;;;;;14.75;100.00;98839.47;5015980;28;19925;-78
2021/09/30 10:19:07;;;;;;;;;;;;;;;14.99;100.00;98845.41;4999717;28;20000;-78
2021/09/30 10:21:35;;;;;;;;;;;;;;;14.98;100.00;98838.22;5013611;28;19990;-78
2021/09/30 10:24:05;;;;;;;;;;;;;;;15.06;100.00;98839.50;5033702;28;20015;-79
2021/09/30 10:26:35;;;;;;;;;;;;;;;14.97;100.00;98831.00;5015918;28;20040;-78
2021/09/30 10:29:02;;;;;;;;;;;;;;;15.14;100.00;98823.94;4999605;28;20293;-78
2021/09/30 10:31:35;;;;;;;;;;;;;;;14.83;100.00;98820.31;4999488;28;19925;-78
2021/09/30 10:34:07;;;;;;;;;;;;;;;15.19;100.00;98801.59;5015646;28;19928;-78
2021/09/30 10:36:36;;;;;;;;;;;;;;;14.97;100.00;98803.66;5015974;28;20011;-79
2021/09/30 10:39:13;;;;;;;;;;;;;;;15.43;100.00;98797.09;5015842;28;19925;-79
2021/09/30 10:41:40;;;;;;;;;;;;;;;15.60;100.00;98795.59;5015859;28;19979;-78
2021/09/30 10:44:21;;;;;;;;;;;;;;;14.30;100.00;98777.22;5015356;28;20019;-78
2021/09/30 10:46:51;;;;;;;;;;;;;;;15.55;100.00;98790.56;5033178;28;19933;-78
2021/09/30 10:49:28;;;;;;;;;;;;;;;15.57;100.00;98785.25;5015339;28;20046;-79
2021/09/30 10:52:14;;;;;;;;;;;;;;;15.38;100.00;98780.00;5032301;28;21287;-78
2021/09/30 10:54:42;;;;;;;;;;;;;;;14.93;100.00;98766.47;5015638;28;20027;-78
2021/09/30 10:57:35;;;;;;;;;;;;;;;15.46;100.00;98751.13;5015384;28;19951;-78
2021/09/30 11:00:06;;;;;;;;;;;;;;;15.82;100.00;98776.56;5013136;28;19925;-78
2021/09/30 11:03:00;;;;;;;;;;;;;;;15.46;100.00;98755.97;5015220;28;19931;-78
2021/09/30 11:05:27;;;;;;;;;;;;;;;15.78;100.00;98747.75;4983034;28;19936;-78
2021/09/30 11:08:13;;;;;;;;;;;;;;;15.84;100.00;98747.94;5015387;28;20008;-78
2021/09/30 11:11:00;;;;;;;;;;;;;;;15.54;100.00;98743.94;5032990;28;19981;-79
2021/09/30 11:13:49;;;;;;;;;;;;;;;15.98;100.00;98736.84;5032604;28;19925;-78
2021/09/30 11:16:17;;;;;;;;;;;;;;;15.88;100.00;98731.66;4998714;28;19925;-78
2021/09/30 11:18:52;;;;;;;;;;;;;;;16.21;100.00;98716.50;5014971;28;19978;-79
2021/09/30 11:21:31;;;;;;;;;;;;;;;16.09;100.00;98703.38;5015560;28;19931;-79
2021/09/30 11:24:06;;;;;;;;;;;;;;;16.20;100.00;98706.50;5014732;28;20032;-78
2021/09/30 11:26:48;;;;;;;;;;;;;;;15.71;100.00;98700.19;5015219;28;19925;-79
2021/09/30 11:29:21;;;;;;;;;;;;;;;16.10;100.00;98709.75;5018043;28;20380;-79
2021/09/30 11:32:08;;;;;;;;;;;;;;;16.17;100.00;98709.47;5014976;28;19932;-78
2021/09/30 11:34:37;;;;;;;;;;;;;;;16.09;100.00;98711.81;5032621;28;19925;-78
2021/09/30 11:37:19;;;;;;;;;;;;;;;16.03;100.00;98701.63;5032508;28;20345;-78
2021/09/30 11:39:49;;;;;;;;;;;;;;;16.41;100.00;98675.78;5014994;28;20010;-78
2021/09/30 11:42:17;;;;;;;;;;;;;;;16.31;100.00;98682.69;5032406;28;19925;-78
2021/09/30 11:45:14;;;;;;;;;;;;;;;15.99;100.00;98689.72;5014983;28;19925;-79
2021/09/30 11:47:42;;;;;;;;;;;;;;;15.74;100.00;98676.72;5019414;28;19932;-78
2021/09/30 11:50:17;;;;;;;;;;;;;;;15.87;100.00;98665.31;5032383;28;20373;-78
2021/09/30 11:52:54;;;;;;;;;;;;;;;16.49;100.00;98663.75;5031986;28;20266;-79
2021/09/30 11:55:21;;;;;;;;;;;;;;;16.00;100.00;98663.91;4982231;28;19925;-78
2021/09/30 11:57:53;;;;;;;;;;;;;;;16.50;100.00;98658.88;5014666;28;19981;-78
2021/09/30 12:00:20;;;;;;;;;;;;;;;16.55;100.00;98673.13;5032401;28;19928;-78
2021/09/30 12:03:06;;;;;;;;;;;;;;;16.71;100.00;98669.94;5032112;28;19925;-78
2021/09/30 12:05:35;;;;;;;;;;;;;;;16.66;100.00;98638.78;4982176;28;19925;-79
2021/09/30 12:08:03;;;;;;;;;;;;;;;16.89;100.00;98638.84;5031953;28;20380;-79
2021/09/30 12:10:32;;;;;;;;;;;;;;;16.85;100.00;98635.44;5032157;28;19986;-78
2021/09/30 12:13:10;;;;;;;;;;;;;;;16.87;100.00;98632.94;5014958;28;19925;-79
2021/09/30 12:15:38;;;;;;;;;;;;;;;17.00;100.00;98635.53;5032192;28;20028;-79
2021/09/30 12:18:14;;;;;;;;;;;;;;;16.80;100.00;98627.59;5032117;28;19929;-79
2021/09/30 12:20:46;;;;;;;;;;;;;;;17.09;100.00;98624.19;4998226;28;20024;-79
2021/09/30 12:23:14;;;;;;;;;;;;;;;17.27;100.00;98621.28;5032383;28;19929;-78
2021/09/30 12:25:41;;;;;;;;;;;;;;;17.02;100.00;98638.66;5014420;28;20475;-79
2021/09/30 12:28:08;;;;;;;;;;;;;;;16.66;100.00;98621.88;5015010;28;20019;-79
2021/09/30 12:30:37;;;;;;;;;;;;;;;17.34;100.00;98635.81;5035579;28;20020;-79
2021/09/30 12:33:04;;;;;;;;;;;;;;;16.96;100.00;98601.84;5018166;28;19975;-79
2021/09/30 12:35:36;;;;;;;;;;;;;;;17.32;100.00;98623.44;5018023;28;20019;-79
2021/09/30 12:38:05;;;;;;;;;;;;;;;16.86;100.00;98610.81;5018038;28;19925;-78
2021/09/30 12:40:35;;;;;;;;;;;;;;;16.63;100.00;98603.06;5001529;28;19929;-79
2021/09/30 12:43:07;;;;;;;;;;;;;;;16.86;100.00;98617.25;5017936;28;19925;-79
2021/09/30 12:45:35;;;;;;;;;;;;;;;16.81;100.00;98609.41;5035408;28;19925;-79
2021/09/30 12:48:10;;;;;;;;;;;;;;;16.91;100.00;98594.03;5035482;28;19933;-78
2021/09/30 12:50:37;;;;;;;;;;;;;;;17.05;100.00;98584.06;5035006;28;19964;-79
2021/09/30 12:53:04;;;;;;;;;;;;;;;17.06;100.00;98577.16;5017825;28;19925;-78
2021/09/30 12:55:32;;;;;;;;;;;;;;;16.88;100.00;98544.19;5035390;28;19955;-79
2021/09/30 12:58:00;;;;;;;;;;;;;;;17.08;100.00;98575.44;5017493;28;20440;-78
2021/09/30 13:00:32;;;;;;;;;;;;;;;16.95;100.00;98576.94;5017473;28;19925;-78
2021/09/30 13:03:13;;;;;;;;;;;;;;;17.18;100.00;98564.84;5035062;28;19925;-78
2021/09/30 13:05:50;;;;;;;;;;;;;;;17.67;100.00;98559.53;5001332;28;19960;-78
2021/09/30 13:08:34;;;;;;;;;;;;;;;17.19;100.00;98547.44;5035117;28;20385;-79
2021/09/30 13:11:20;;;;;;;;;;;;;;;17.82;100.00;98551.88;5034960;28;19975;-78
2021/09/30 13:14:08;;;;;;;;;;;;;;;17.62;100.00;98548.91;5034902;28;19929;-79
2021/09/30 13:16:35;;;;;;;;;;;;;;;17.20;100.00;98536.94;5034654;28;19929;-79
2021/09/30 13:19:02;;;;;;;;;;;;;;;17.65;100.00;98539.44;5017170;28;19947;-79
2021/09/30 13:21:29;;;;;;;;;;;;;;;17.51;100.00;98540.19;5017496;28;20063;-79
2021/09/30 13:23:56;;;;;;;;;;;;;;;17.37;100.00;98549.38;5034774;28;19925;-79
2021/09/30 13:26:23;;;;;;;;;;;;;;;17.35;100.00;98532.91;5034910;28;19925;-79
2021/09/30 13:28:50;;;;;;;;;;;;;;;17.59;100.00;98513.13;5016992;28;19979;-79
2021/09/30 13:31:17;;;;;;;;;;;;;;;17.84;100.00;98518.25;5016896;28;20029;-79
2021/09/30 13:33:44;;;;;;;;;;;;;;;17.87;100.00;98537.84;5016929;28;19929;-79
2021/09/30 13:36:11;;;;;;;;;;;;;;;17.87;100.00;98517.28;5016986;28;19952;-79
2021/09/30 13:38:38;;;;;;;;;;;;;;;17.62;100.00;98509.34;5034381;28;19933;-79
2021/09/30 13:41:05;;;;;;;;;;;;;;;17.34;100.00;98508.75;5033250;28;19986;-79
2021/09/30 13:43:33;;;;;;;;;;;;;;;17.53;100.00;98510.22;5016461;28;20289;-79
2021/09/30 13:46:00;;;;;;;;;;;;;;;17.66;100.00;98507.13;5016832;28;19932;-78
2021/09/30 13:48:27;;;;;;;;;;;;;;;17.58;100.00;98498.22;5034374;28;19960;-79
2021/09/30 13:50:55;;;;;;;;;;;;;;;17.32;100.00;98511.28;5016416;28;20359;-79
2021/09/30 13:53:22;;;;;;;;;;;;;;;17.29;100.00;98500.97;5034239;28;20288;-79
2021/09/30 13:55:49;;;;;;;;;;;;;;;17.91;100.00;98489.63;5016485;28;20423;-79
2021/09/30 13:58:17;;;;;;;;;;;;;;;18.00;100.00;98486.69;5000561;28;19925;-79
2021/09/30 14:00:44;;;;;;;;;;;;;;;17.86;100.00;98454.34;4983890;28;20288;-79
2021/09/30 14:03:11;;;;;;;;;;;;;;;17.46;100.00;98470.28;5000342;28;20315;-79
2021/09/30 14:05:38;;;;;;;;;;;;;;;17.61;100.00;98477.50;5016506;28;20384;-79
2021/09/30 14:08:05;;;;;;;;;;;;;;;17.67;100.00;98483.25;5033955;28;20392;-79
2021/09/30 14:10:32;;;;;;;;;;;;;;;17.60;100.00;98483.63;5017722;28;20335;-87
2021/09/30 14:13:00;;;;;;;;;;;;;;;17.32;100.00;98468.16;5017704;28;20012;-86
2021/09/30 14:15:27;;;;;;;;;;;;;;;17.39;100.00;98467.78;5017673;28;20357;-83
2021/09/30 14:17:54;;;;;;;;;;;;;;;17.60;100.00;98466.66;5034972;28;20377;-81
2021/09/30 14:20:22;;;;;;;;;;;;;;;17.72;100.00;98426.84;5001226;28;19932;-81
2021/09/30 14:22:53;;;;;;;;;;;;;;;17.46;100.00;98456.16;5035252;28;20344;-81
2021/09/30 14:25:20;;;;;;;;;;;;;;;17.88;100.00;98456.66;5035260;28;19929;-81
2021/09/30 14:27:47;;;;;;;;;;;;;;;17.68;100.00;98456.56;5018126;28;20385;-80
2021/09/30 14:30:15;;;;;;;;;;;;;;;17.29;100.00;98461.44;5017285;28;20323;-81
2021/09/30 14:33:00;;;;;;;;;;;;;;;18.04;100.00;98441.28;5017551;28;19931;-81
2021/09/30 14:35:27;;;;;;;;;;;;;;;17.65;100.00;98432.09;5016994;28;20385;-81
2021/09/30 14:37:55;;;;;;;;;;;;;;;17.81;100.00;98451.41;5017457;28;19925;-81
2021/09/30 14:40:22;;;;;;;;;;;;;;;17.28;100.00;98436.50;5034580;28;20349;-80
2021/09/30 14:42:49;;;;;;;;;;;;;;;17.55;100.00;98417.28;5017659;28;19936;-81
2021/09/30 14:45:17;;;;;;;;;;;;;;;18.16;100.00;98418.34;5017232;28;19971;-81
2021/09/30 14:47:44;;;;;;;;;;;;;;;18.09;100.00;98426.44;5000494;28;19933;-81
2021/09/30 14:50:10;;;;;;;;;;;;;;;17.92;100.00;98417.69;5034625;28;20256;-81
2021/09/30 14:52:37;;;;;;;;;;;;;;;17.93;100.00;98399.47;5034201;28;19925;-81
2021/09/30 14:55:05;;;;;;;;;;;;;;;18.31;100.00;98416.25;5034879;28;20423;-81
2021/09/30 14:57:32;;;;;;;;;;;;;;;18.19;100.00;98403.22;5034066;28;20020;-86
2021/09/30 14:59:59;;;;;;;;;;;;;;;18.13;100.00;98402.34;5016575;28;19937;-85
2021/09/30 15:02:27;;;;;;;;;;;;;;;18.02;100.00;98405.78;4983656;28;19986;-85
2021/09/30 15:04:54;;;;;;;;;;;;;;;18.04;100.00;98396.06;4999119;28;19929;-84
2021/09/30 15:07:25;;;;;;;;;;;;;;;18.07;100.00;98401.47;5016348;28;19925;-85
2021/09/30 15:10:17;;;;;;;;;;;;;;;17.91;100.00;98376.56;4984064;28;20031;-84
2021/09/30 15:12:44;;;;;;;;;;;;;;;17.63;100.00;98397.94;5016279;28;19925;-84
2021/09/30 15:15:12;;;;;;;;;;;;;;;17.73;100.00;98393.72;4999833;28;20312;-83
2021/09/30 15:22:36;;;;;;;;;;;;;;;17.72;100.00;98403.50;5033904;28;19925;-83
2021/09/30 15:25:04;;;;;;;;;;;;;;;17.63;100.00;98395.88;4999704;28;19932;-83
2021/09/30 15:27:33;;;;;;;;;;;;;;;17.81;100.00;98378.72;5016033;28;19931;-83
2021/09/30 15:30:01;;;;;;;;;;;;;;;18.12;100.00;98386.66;5016206;28;20423;-83
2021/09/30 15:32:28;;;;;;;;;;;;;;;17.86;100.00;98388.56;5033688;28;20372;-83
2021/09/30 15:34:56;;;;;;;;;;;;;;;17.71;100.00;98384.94;5016446;28;19928;-83
2021/09/30 15:37:23;;;;;;;;;;;;;;;17.83;100.00;98379.00;5015977;28;19988;-83
2021/09/30 15:39:50;;;;;;;;;;;;;;;17.80;100.00;98357.38;5016049;28;19929;-83
2021/09/30 15:42:17;;;;;;;;;;;;;;;17.83;100.00;98383.88;5032619;28;19960;-83
2021/09/30 15:44:45;;;;;;;;;;;;;;;17.69;100.00;98391.09;5016113;28;19925;-83
2021/09/30 15:47:12;;;;;;;;;;;;;;;17.50;100.00;98398.22;5015916;28;19940;-83
2021/09/30 15:49:40;;;;;;;;;;;;;;;17.92;100.00;98386.59;5033703;28;19929;-83
2021/09/30 15:52:07;;;;;;;;;;;;;;;17.65;100.00;98399.00;4996035;28;19925;-83